createdAt,value
2018-05-09T00:00:47.999Z,98237.02
2018-05-09T00:03:21.579Z,98234.72
2018-05-09T00:05:55.205Z,98238.53
2018-05-09T00:08:28.822Z,98235.33
2018-05-09T00:11:02.384Z,98236.02
2018-05-09T00:13:36.035Z,98234.31
2018-05-09T00:16:09.792Z,98238.94
2018-05-09T00:18:43.440Z,98233.02
2018-05-09T00:21:17.000Z,98237.19
2018-05-09T00:23:50.500Z,98234.73
2018-05-09T00:26:24.239Z,98234.23
2018-05-09T00:28:57.808Z,98229.90
2018-05-09T00:31:31.420Z,98227.88
2018-05-09T00:34:05.147Z,98225.70
2018-05-09T00:36:38.736Z,98223.97
2018-05-09T00:39:12.321Z,98218.67
2018-05-09T00:41:46.162Z,98224.34
2018-05-09T00:44:19.644Z,98222.17
2018-05-09T00:46:53.315Z,98217.16
2018-05-09T00:49:27.168Z,98216.45
2018-05-09T00:52:00.907Z,98218.89
2018-05-09T00:54:34.447Z,98214.24
2018-05-09T00:57:07.979Z,98215.34
2018-05-09T00:59:41.728Z,98212.14
2018-05-09T01:02:15.233Z,98207.55
2018-05-09T01:04:48.939Z,98206.59
2018-05-09T01:07:22.443Z,98206.92
2018-05-09T01:09:56.232Z,98215.91
2018-05-09T01:12:29.771Z,98212.08
2018-05-09T01:15:03.376Z,98209.06
2018-05-09T01:17:36.934Z,98206.75
2018-05-09T01:20:10.739Z,98205.16
2018-05-09T01:22:44.312Z,98201.82
2018-05-09T01:25:18.038Z,98205.13
2018-05-09T01:27:51.527Z,98198.75
2018-05-09T01:30:25.113Z,98198.69
2018-05-09T01:32:58.847Z,98199.45
2018-05-09T01:35:32.623Z,98192.92
2018-05-09T01:38:06.302Z,98192.66
2018-05-09T01:40:39.959Z,98199.66
2018-05-09T01:43:13.464Z,98191.29
2018-05-09T01:45:47.260Z,98192.45
2018-05-09T01:48:20.921Z,98192.78
2018-05-09T01:50:54.568Z,98194.11
2018-05-09T01:53:28.102Z,98185.47
2018-05-09T01:56:01.900Z,98181.67
2018-05-09T01:58:35.460Z,98184.16
2018-05-09T02:01:09.175Z,98187.86
2018-05-09T02:03:42.980Z,98190.23
2018-05-09T02:06:16.612Z,98188.88
2018-05-09T02:08:50.087Z,98188.16
2018-05-09T02:11:24.003Z,98185.34
2018-05-09T02:13:57.596Z,98185.92
2018-05-09T02:16:31.420Z,98187.34
2018-05-09T02:19:05.203Z,98185.03
2018-05-09T02:21:39.323Z,98186.50
2018-05-09T02:24:13.032Z,98185.16
2018-05-09T02:26:46.820Z,98172.66
2018-05-09T02:29:20.388Z,98177.89
2018-05-09T02:31:54.164Z,98178.85
2018-05-09T02:34:27.836Z,98181.88
2018-05-09T02:37:01.401Z,98181.25
2018-05-09T02:39:35.175Z,98173.41
2018-05-09T02:42:08.733Z,98180.34
2018-05-09T02:44:42.256Z,98182.62
2018-05-09T02:47:15.988Z,98179.59
2018-05-09T02:49:49.586Z,98185.22
2018-05-09T02:52:23.182Z,98178.66
2018-05-09T02:54:56.772Z,98177.68
2018-05-09T02:57:30.577Z,98180.42
2018-05-09T03:00:04.142Z,98183.28
2018-05-09T03:02:37.916Z,98180.09
2018-05-09T03:05:11.508Z,98183.23
2018-05-09T03:07:45.232Z,98186.11
2018-05-09T03:10:18.843Z,98181.28
2018-05-09T03:12:52.537Z,98187.16
2018-05-09T03:15:26.073Z,98188.41
2018-05-09T03:17:59.848Z,98185.36
2018-05-09T03:20:33.428Z,98182.54
2018-05-09T03:23:07.057Z,98190.91
2018-05-09T03:25:40.563Z,98188.59
2018-05-09T03:28:14.088Z,98189.93
2018-05-09T03:30:47.806Z,98189.14
2018-05-09T03:33:21.394Z,98180.89
2018-05-09T03:35:54.860Z,98184.58
2018-05-09T03:38:28.440Z,98182.73
2018-05-09T03:41:02.028Z,98185.45
2018-05-09T03:43:35.672Z,98190.06
2018-05-09T03:46:09.204Z,98194.55
2018-05-09T03:48:42.763Z,98193.81
2018-05-09T03:51:16.390Z,98197.55
2018-05-09T03:53:50.012Z,98196.13
2018-05-09T03:56:23.611Z,98194.84
2018-05-09T03:58:57.180Z,98192.96
2018-05-09T04:01:42.528Z,98193.28
2018-05-09T04:04:28.174Z,98195.97
2018-05-09T04:07:13.738Z,98199.41
2018-05-09T04:10:02.439Z,98198.98
2018-05-09T04:12:36.883Z,98204.44
2018-05-09T04:15:10.455Z,98205.37
2018-05-09T04:17:43.986Z,98211.51
2018-05-09T04:20:17.674Z,98222.29
2018-05-09T04:22:51.570Z,98214.72
2018-05-09T04:25:25.186Z,98217.47
2018-05-09T04:27:58.961Z,98215.38
2018-05-09T04:30:32.529Z,98213.47
2018-05-09T04:33:06.035Z,98217.13
2018-05-09T04:35:39.763Z,98219.66
2018-05-09T04:38:13.255Z,98213.94
2018-05-09T04:40:46.741Z,98218.59
2018-05-09T04:43:20.294Z,98214.38
2018-05-09T04:45:53.834Z,98214.91
2018-05-09T04:48:27.404Z,98216.26
2018-05-09T04:51:01.028Z,98213.45
2018-05-09T04:53:34.587Z,98213.77
2018-05-09T04:56:08.141Z,98212.35
2018-05-09T04:58:41.637Z,98216.72
2018-05-09T05:01:15.228Z,98215.85
2018-05-09T05:03:48.961Z,98218.80
2018-05-09T05:06:22.595Z,98213.16
2018-05-09T05:08:56.124Z,98221.61
2018-05-09T05:11:29.847Z,98220.26
2018-05-09T05:14:03.699Z,98219.64
2018-05-09T05:16:37.421Z,98221.52
2018-05-09T05:19:11.016Z,98226.15
2018-05-09T05:21:44.665Z,98225.19
2018-05-09T05:24:18.524Z,98221.03
2018-05-09T05:26:52.023Z,98223.38
2018-05-09T05:29:25.676Z,98222.38
2018-05-09T05:31:59.456Z,98219.77
2018-05-09T05:34:33.340Z,98217.43
2018-05-09T05:37:07.057Z,98225.77
2018-05-09T05:39:40.823Z,98226.19
2018-05-09T05:42:14.392Z,98224.22
2018-05-09T05:44:48.151Z,98230.55
2018-05-09T05:47:21.816Z,98230.33
2018-05-09T05:49:55.368Z,98228.84
2018-05-09T05:52:29.005Z,98223.63
2018-05-09T05:55:02.547Z,98230.55
2018-05-09T05:57:36.198Z,98227.11
2018-05-09T06:00:09.798Z,98218.08
2018-05-09T06:02:43.311Z,98213.83
2018-05-09T06:05:16.868Z,98218.18
2018-05-09T06:07:50.644Z,98216.90
2018-05-09T06:10:24.210Z,98219.08
2018-05-09T06:12:57.676Z,98217.87
2018-05-09T06:15:31.346Z,98208.66
2018-05-09T06:18:05.185Z,98218.25
2018-05-09T06:20:38.699Z,98221.66
2018-05-09T06:23:12.248Z,98225.81
2018-05-09T06:25:45.943Z,98229.05
2018-05-09T06:28:19.606Z,98228.27
2018-05-09T06:30:53.223Z,98221.83
2018-05-09T06:33:27.204Z,98238.02
2018-05-09T06:36:00.758Z,98226.70
2018-05-09T06:38:34.405Z,98246.42
2018-05-09T06:41:08.049Z,98243.78
2018-05-09T06:43:41.542Z,98247.65
2018-05-09T06:46:15.237Z,98246.15
2018-05-09T06:48:48.764Z,98241.00
2018-05-09T06:51:22.499Z,98244.75
2018-05-09T06:53:56.100Z,98239.70
2018-05-09T06:56:30.033Z,98241.37
2018-05-09T06:59:03.615Z,98236.56
2018-05-09T07:01:37.320Z,98251.30
2018-05-09T07:04:10.860Z,98249.58
2018-05-09T07:06:44.920Z,98249.14
2018-05-09T07:09:18.344Z,98247.13
2018-05-09T07:11:51.851Z,98247.52
2018-05-09T07:14:25.476Z,98243.53
2018-05-09T07:16:59.104Z,98250.64
2018-05-09T07:19:32.765Z,98248.58
2018-05-09T07:22:06.329Z,98242.64
2018-05-09T07:24:39.861Z,98244.19
2018-05-09T07:27:13.497Z,98244.88
2018-05-09T07:29:47.221Z,98242.37
2018-05-09T07:32:20.823Z,98242.77
2018-05-09T07:34:54.357Z,98241.41
2018-05-09T07:37:27.927Z,98244.41
2018-05-09T07:40:01.636Z,98237.21
2018-05-09T07:42:35.124Z,98236.22
2018-05-09T07:45:08.795Z,98241.02
2018-05-09T07:47:42.631Z,98235.55
2018-05-09T07:50:16.424Z,98233.63
2018-05-09T07:52:50.080Z,98232.67
2018-05-09T07:55:23.772Z,98231.19
2018-05-09T07:57:57.604Z,98235.52
2018-05-09T08:00:31.315Z,98237.74
2018-05-09T08:03:04.904Z,98238.33
2018-05-09T08:05:38.444Z,98235.88
2018-05-09T08:08:12.056Z,98240.92
2018-05-09T08:10:45.656Z,98242.59
2018-05-09T08:13:19.159Z,98243.66
2018-05-09T08:15:52.693Z,98246.64
2018-05-09T08:18:26.283Z,98250.42
2018-05-09T08:21:00.077Z,98248.29
2018-05-09T08:23:33.699Z,98248.71
2018-05-09T08:26:07.427Z,98248.29
2018-05-09T08:28:41.229Z,98250.57
2018-05-09T08:31:14.804Z,98250.38
2018-05-09T08:33:48.597Z,98245.48
2018-05-09T08:36:22.193Z,98241.53
2018-05-09T08:38:55.816Z,98249.41
2018-05-09T08:41:29.396Z,98244.81
2018-05-09T08:44:03.005Z,98242.89
2018-05-09T08:46:36.711Z,98245.75
2018-05-09T08:49:10.382Z,98242.61
2018-05-09T08:51:43.968Z,98251.34
2018-05-09T08:54:17.468Z,98249.53
2018-05-09T08:56:51.028Z,98240.73
2018-05-09T08:59:24.680Z,98237.28
2018-05-09T09:01:58.443Z,98236.17
2018-05-09T09:04:32.016Z,98234.16
2018-05-09T09:07:05.565Z,98243.30
2018-05-09T09:09:39.106Z,98244.05
2018-05-09T09:12:12.790Z,98236.12
2018-05-09T09:14:46.428Z,98234.69
2018-05-09T09:17:20.266Z,98229.46
2018-05-09T09:19:53.835Z,98235.63
2018-05-09T09:22:27.413Z,98228.20
2018-05-09T09:25:01.084Z,98228.66
2018-05-09T09:27:34.648Z,98227.78
2018-05-09T09:30:08.264Z,98224.22
2018-05-09T09:32:41.821Z,98218.86
2018-05-09T09:35:15.622Z,98227.69
2018-05-09T09:37:49.515Z,98219.01
2018-05-09T09:40:23.020Z,98210.70
2018-05-09T09:42:56.853Z,98210.87
2018-05-09T09:45:30.401Z,98210.78
2018-05-09T09:48:03.991Z,98212.39
2018-05-09T09:50:37.794Z,98201.56
2018-05-09T09:53:12.193Z,98200.00
2018-05-09T09:55:45.913Z,98209.47
2018-05-09T09:58:19.592Z,98197.35
2018-05-09T10:00:53.206Z,98194.02
2018-05-09T10:03:26.720Z,98191.96
2018-05-09T10:06:00.359Z,98191.14
2018-05-09T10:08:34.031Z,98193.62
2018-05-09T10:11:07.517Z,98192.58
2018-05-09T10:13:41.321Z,98198.37
2018-05-09T10:16:14.905Z,98188.70
2018-05-09T10:18:48.543Z,98179.70
2018-05-09T10:21:22.060Z,98182.77
2018-05-09T10:23:55.904Z,98174.36
2018-05-09T10:26:29.464Z,98171.33
2018-05-09T10:29:03.231Z,98168.39
2018-05-09T10:31:37.054Z,98167.41
2018-05-09T10:34:10.740Z,98159.56
2018-05-09T10:36:44.209Z,98155.84
2018-05-09T10:39:18.030Z,98159.94
2018-05-09T10:41:51.535Z,98154.27
2018-05-09T10:44:25.307Z,98153.75
2018-05-09T10:46:59.084Z,98152.86
2018-05-09T10:49:32.664Z,98149.45
2018-05-09T10:52:06.171Z,98155.98
2018-05-09T10:54:39.698Z,98141.65
2018-05-09T10:57:13.234Z,98146.23
2018-05-09T10:59:46.885Z,98138.09
2018-05-09T11:02:20.454Z,98144.13
2018-05-09T11:04:54.016Z,98139.98
2018-05-09T11:07:27.543Z,98132.94
2018-05-09T11:10:01.147Z,98132.13
2018-05-09T11:12:34.662Z,98127.18
2018-05-09T11:15:08.188Z,98125.55
2018-05-09T11:17:41.887Z,98130.62
2018-05-09T11:20:15.635Z,98125.29
2018-05-09T11:22:49.167Z,98126.64
2018-05-09T11:25:22.812Z,98136.36
2018-05-09T11:27:56.554Z,98134.23
2018-05-09T11:30:30.343Z,98133.08
2018-05-09T11:33:04.152Z,98121.73
2018-05-09T11:35:37.662Z,98121.43
2018-05-09T11:38:11.216Z,98109.91
2018-05-09T11:40:44.867Z,98113.16
2018-05-09T11:43:18.344Z,98106.72
2018-05-09T11:45:52.020Z,98110.61
2018-05-09T11:48:25.799Z,98098.43
2018-05-09T11:50:59.499Z,98105.75
2018-05-09T11:53:33.259Z,98106.86
2018-05-09T11:56:06.812Z,98106.61
2018-05-09T11:58:40.500Z,98098.39
2018-05-09T12:01:14.121Z,98098.14
2018-05-09T12:03:47.861Z,98101.30
2018-05-09T12:06:21.643Z,98093.55
2018-05-09T12:08:55.370Z,98099.31
2018-05-09T12:11:28.955Z,98092.36
2018-05-09T12:14:02.530Z,98092.89
2018-05-09T12:16:44.512Z,98091.93
2018-05-09T12:19:18.101Z,98090.28
2018-05-09T12:21:51.952Z,98090.77
2018-05-09T12:24:25.515Z,98081.10
2018-05-09T12:26:59.128Z,98086.95
2018-05-09T12:29:32.640Z,98080.69
2018-05-09T12:32:06.441Z,98083.09
2018-05-09T12:34:40.233Z,98077.11
2018-05-09T12:37:13.781Z,98058.00
2018-05-09T12:39:47.561Z,98057.31
2018-05-09T12:42:21.095Z,98070.35
2018-05-09T12:44:54.880Z,98060.59
2018-05-09T12:47:28.546Z,98057.43
2018-05-09T12:50:02.295Z,98045.67
2018-05-09T12:52:36.018Z,98052.54
2018-05-09T12:55:09.548Z,98056.68
2018-05-09T12:57:43.194Z,98043.36
2018-05-09T13:00:17.039Z,98048.87
2018-05-09T13:02:50.627Z,98040.23
2018-05-09T13:05:24.144Z,98039.37
2018-05-09T13:07:57.865Z,98034.19
2018-05-09T13:10:31.369Z,98040.16
2018-05-09T13:13:04.963Z,98037.76
2018-05-09T13:18:11.454Z,98037.20
2018-05-09T13:20:44.933Z,98034.75
2018-05-09T13:23:18.628Z,98035.09
2018-05-09T13:25:52.254Z,98030.11
2018-05-09T13:28:25.811Z,98030.38
2018-05-09T13:30:59.567Z,98030.91
2018-05-09T13:33:33.292Z,98030.97
2018-05-09T13:36:06.998Z,98016.77
2018-05-09T13:38:40.666Z,98018.28
2018-05-09T13:41:14.352Z,98019.94
2018-05-09T13:43:48.022Z,98018.56
2018-05-09T13:46:21.665Z,98020.23
2018-05-09T13:48:55.432Z,98006.73
2018-05-09T13:51:29.063Z,98005.16
2018-05-09T13:54:02.672Z,98001.31
2018-05-09T13:56:36.200Z,97996.07
2018-05-09T13:59:09.776Z,97993.26
2018-05-09T14:01:43.328Z,97991.02
2018-05-09T14:04:16.909Z,97994.09
2018-05-09T14:06:50.412Z,97987.30
2018-05-09T14:09:24.217Z,97990.96
2018-05-09T14:11:57.782Z,97987.95
2018-05-09T14:14:31.476Z,97983.39
2018-05-09T14:17:05.001Z,97984.60
2018-05-09T14:19:38.754Z,97987.88
2018-05-09T14:22:12.855Z,97989.76
2018-05-09T14:24:46.612Z,97980.23
2018-05-09T14:27:20.251Z,97976.06
2018-05-09T14:29:54.091Z,97977.05
2018-05-09T14:32:27.886Z,97970.14
2018-05-09T14:35:01.405Z,97977.55
2018-05-09T14:37:34.926Z,97977.64
2018-05-09T14:40:08.516Z,97973.28
2018-05-09T14:42:42.130Z,97967.03
2018-05-09T14:45:15.800Z,97971.61
2018-05-09T14:47:49.421Z,97962.64
2018-05-09T14:50:22.980Z,97961.50
2018-05-09T14:52:56.487Z,97969.19
2018-05-09T14:55:30.192Z,97963.34
2018-05-09T14:58:03.999Z,97964.91
2018-05-09T15:00:37.815Z,97962.70
2018-05-09T15:03:11.430Z,97953.29
2018-05-09T15:05:45.244Z,97965.62
2018-05-09T15:08:18.943Z,97960.06
2018-05-09T15:10:52.678Z,97956.71
2018-05-09T15:13:26.266Z,97961.59
2018-05-09T15:15:59.890Z,97956.64
2018-05-09T15:18:33.506Z,97964.19
2018-05-09T15:21:07.062Z,97959.16
2018-05-09T15:23:40.752Z,97957.29
2018-05-09T15:26:14.295Z,97960.59
2018-05-09T15:28:47.913Z,97954.62
2018-05-09T15:31:21.539Z,97958.66
2018-05-09T15:33:55.063Z,97951.73
2018-05-09T15:36:28.721Z,97945.09
2018-05-09T15:39:02.344Z,97946.23
2018-05-09T15:41:35.978Z,97947.56
2018-05-09T15:44:09.665Z,97944.69
2018-05-09T15:46:43.366Z,97941.35
2018-05-09T15:49:16.950Z,97941.77
2018-05-09T15:51:50.537Z,97948.52
2018-05-09T15:54:24.189Z,97946.44
2018-05-09T15:56:57.834Z,97938.90
2018-05-09T15:59:31.509Z,97941.36
2018-05-09T16:02:05.101Z,97943.93
2018-05-09T16:04:38.638Z,97943.05
2018-05-09T16:07:12.771Z,97939.27
2018-05-09T16:09:46.572Z,97945.80
2018-05-09T16:12:20.144Z,97944.05
2018-05-09T16:14:53.662Z,97935.88
2018-05-09T16:17:27.245Z,97944.73
2018-05-09T16:20:00.782Z,97945.31
2018-05-09T16:22:34.713Z,97941.34
2018-05-09T16:25:08.397Z,97941.45
2018-05-09T16:27:41.918Z,97934.06
2018-05-09T16:30:15.510Z,97939.27
2018-05-09T16:32:49.066Z,97938.58
2018-05-09T16:35:22.795Z,97932.27
2018-05-09T16:37:56.685Z,97932.62
2018-05-09T16:40:30.413Z,97931.42
2018-05-09T16:43:04.159Z,97938.17
2018-05-09T16:45:37.819Z,97934.53
2018-05-09T16:48:11.610Z,97941.13
2018-05-09T16:50:45.356Z,97940.20
2018-05-09T16:53:18.936Z,97939.36
2018-05-09T16:55:53.973Z,97937.33
2018-05-09T16:58:27.751Z,97936.80
2018-05-09T17:01:01.267Z,97936.63
2018-05-09T17:03:34.924Z,97943.48
2018-05-09T17:06:08.771Z,97950.31
2018-05-09T17:08:42.530Z,97946.05
2018-05-09T17:11:16.353Z,97946.55
2018-05-09T17:13:50.053Z,97939.82
2018-05-09T17:16:23.800Z,97941.28
2018-05-09T17:18:57.500Z,97937.77
2018-05-09T17:21:43.242Z,97937.52
2018-05-09T17:24:17.337Z,97935.31
2018-05-09T17:26:51.050Z,97936.37
2018-05-09T17:29:24.718Z,97933.53
2018-05-09T17:31:58.238Z,97930.40
2018-05-09T17:34:31.906Z,97929.60
2018-05-09T17:37:05.478Z,97929.27
2018-05-09T17:39:39.257Z,97924.90
2018-05-09T17:42:12.791Z,97930.49
2018-05-09T17:44:46.380Z,97926.00
2018-05-09T17:47:21.506Z,97927.47
2018-05-09T17:49:55.144Z,97937.02
2018-05-09T17:52:29.104Z,97933.67
2018-05-09T17:55:02.615Z,97931.89
2018-05-09T17:57:36.344Z,97934.73
2018-05-09T18:00:09.849Z,97934.53
2018-05-09T18:02:43.664Z,97925.58
2018-05-09T18:05:17.429Z,97929.14
2018-05-09T18:07:51.140Z,97935.41
2018-05-09T18:10:24.674Z,97927.97
2018-05-09T18:12:58.288Z,97919.53
2018-05-09T18:15:31.924Z,97920.80
2018-05-09T18:18:05.568Z,97922.84
2018-05-09T18:20:39.199Z,97920.67
2018-05-09T18:23:12.901Z,97922.30
2018-05-09T18:25:46.561Z,97922.57
2018-05-09T18:28:20.180Z,97921.66
2018-05-09T18:30:53.691Z,97921.97
2018-05-09T18:33:27.307Z,97924.75
2018-05-09T18:36:01.056Z,97927.09
2018-05-09T18:38:34.691Z,97926.55
2018-05-09T18:41:08.215Z,97929.16
2018-05-09T18:43:41.717Z,97929.72
2018-05-09T18:46:15.372Z,97927.55
2018-05-09T18:48:48.927Z,97934.78
2018-05-09T18:51:22.517Z,97935.70
2018-05-09T18:53:56.235Z,97935.02
2018-05-09T18:56:29.873Z,97933.00
2018-05-09T18:59:03.510Z,97942.66
2018-05-09T19:01:37.139Z,97943.59
2018-05-09T19:04:10.732Z,97941.30
2018-05-09T19:06:44.304Z,97947.22
2018-05-09T19:09:17.939Z,97942.56
2018-05-09T19:11:51.479Z,97945.73
2018-05-09T19:14:25.038Z,97944.58
2018-05-09T19:16:58.579Z,97947.00
2018-05-09T19:19:32.419Z,97948.31
2018-05-09T19:22:06.050Z,97945.38
2018-05-09T19:24:39.684Z,97941.41
2018-05-09T19:27:13.244Z,97941.48
2018-05-09T19:29:46.784Z,97936.73
2018-05-09T19:32:20.448Z,97947.25
2018-05-09T19:34:54.192Z,97944.02
2018-05-09T19:37:27.735Z,97946.06
2018-05-09T19:40:01.261Z,97953.02
2018-05-09T19:42:34.840Z,97953.83
2018-05-09T19:45:08.365Z,97947.00
2018-05-09T19:47:42.138Z,97954.91
2018-05-09T19:50:15.764Z,97956.36
2018-05-09T19:52:49.469Z,97963.31
2018-05-09T19:55:23.168Z,97960.34
2018-05-09T19:57:56.758Z,97957.35
2018-05-09T20:00:30.280Z,97954.80
2018-05-09T20:03:03.962Z,97957.30
2018-05-09T20:05:37.691Z,97960.02
2018-05-09T20:08:11.464Z,97954.52
2018-05-09T20:10:45.348Z,97955.75
2018-05-09T20:13:19.076Z,97950.75
2018-05-09T20:15:52.724Z,97956.75
2018-05-09T20:18:26.404Z,97958.02
2018-05-09T20:21:00.154Z,97957.44
2018-05-09T20:23:33.875Z,97954.14
2018-05-09T20:26:07.572Z,97955.66
2018-05-09T20:28:47.014Z,97948.69
2018-05-09T20:31:38.397Z,97951.06
2018-05-09T20:34:12.150Z,97945.75
2018-05-09T20:36:45.782Z,97946.52
2018-05-09T20:39:19.435Z,97942.75
2018-05-09T20:41:53.069Z,97944.56
2018-05-09T20:44:26.764Z,97947.33
2018-05-09T20:47:00.387Z,97941.35
2018-05-09T20:49:34.172Z,97940.78
2018-05-09T20:52:07.792Z,97944.58
2018-05-09T20:54:41.354Z,97942.14
2018-05-09T20:57:14.983Z,97944.63
2018-05-09T20:59:48.623Z,97948.61
2018-05-09T21:02:22.223Z,97952.28
2018-05-09T21:04:55.819Z,97963.88
2018-05-09T21:07:29.332Z,97966.34
2018-05-09T21:10:02.876Z,97964.88
2018-05-09T21:12:36.334Z,97966.06
2018-05-09T21:15:10.112Z,97962.14
2018-05-09T21:17:43.690Z,97966.48
2018-05-09T21:20:17.370Z,97969.28
2018-05-09T21:22:50.881Z,97969.49
2018-05-09T21:25:24.518Z,97960.24
2018-05-09T21:27:58.308Z,97964.39
2018-05-09T21:30:31.825Z,97961.43
2018-05-09T21:33:05.479Z,97960.23
2018-05-09T21:35:39.207Z,97963.39
2018-05-09T21:38:12.940Z,97963.60
2018-05-09T21:40:46.569Z,97958.12
2018-05-09T21:43:20.312Z,97967.00
2018-05-09T21:45:53.840Z,97972.56
2018-05-09T21:48:27.622Z,97972.36
2018-05-09T21:51:01.425Z,97972.17
2018-05-09T21:53:35.261Z,97970.62
2018-05-09T21:56:08.762Z,97975.93
2018-05-09T21:58:42.276Z,97975.91
2018-05-09T22:01:16.035Z,97972.58
2018-05-09T22:03:49.504Z,97975.92
2018-05-09T22:06:23.100Z,97973.37
2018-05-09T22:08:56.747Z,97976.91
2018-05-09T22:11:30.420Z,97970.42
2018-05-09T22:14:04.167Z,97968.84
2018-05-09T22:16:38.062Z,97966.27
2018-05-09T22:19:11.828Z,97969.03
2018-05-09T22:21:45.316Z,97966.08
2018-05-09T22:24:19.177Z,97960.77
2018-05-09T22:26:52.808Z,97957.41
2018-05-09T22:29:26.422Z,97956.83
2018-05-09T22:32:00.147Z,97949.75
2018-05-09T22:34:33.903Z,97956.26
2018-05-09T22:37:24.194Z,97950.13
2018-05-09T22:39:57.971Z,97952.30
2018-05-09T22:42:31.540Z,97951.91
2018-05-09T22:45:05.160Z,97956.23
2018-05-09T22:47:38.701Z,97949.15
2018-05-09T22:50:12.239Z,97949.73
2018-05-09T22:52:45.850Z,97950.72
2018-05-09T22:55:19.566Z,97945.80
2018-05-09T22:57:53.438Z,97944.00
2018-05-09T23:00:27.210Z,97943.77
2018-05-09T23:03:00.816Z,97949.67
2018-05-09T23:05:34.931Z,97943.37
2018-05-09T23:08:08.486Z,97946.72
2018-05-09T23:10:42.290Z,97949.45
2018-05-09T23:13:15.839Z,97947.45
2018-05-09T23:15:49.578Z,97952.73
2018-05-09T23:18:23.132Z,97957.05
2018-05-09T23:20:56.808Z,97953.11
2018-05-09T23:23:30.639Z,97951.16
2018-05-09T23:26:04.301Z,97950.73
2018-05-09T23:28:37.880Z,97947.20
2018-05-09T23:31:11.520Z,97952.48
2018-05-09T23:33:45.143Z,97947.86
2018-05-09T23:36:18.780Z,97947.97
2018-05-09T23:38:52.396Z,97953.92
2018-05-09T23:41:26.118Z,97953.45
2018-05-09T23:43:59.738Z,97950.66
2018-05-09T23:46:33.321Z,97952.16
2018-05-09T23:49:06.969Z,97951.94
2018-05-09T23:51:40.475Z,97951.72
2018-05-09T23:54:14.001Z,97955.84
2018-05-09T23:56:47.648Z,97959.27
2018-05-09T23:59:21.391Z,97958.63
